Time;durP1;ratioP1;P1;durP2;ratioP2;P2;SDS_P1;SDS_P2;PMS_P1;PMS_P2;Temp;Humidity;BMP_temperature;BMP_pressure;BME280_temperature;BME280_humidity;BME280_pressure;Samples;Min_cycle;Max_cycle;Signal;HPM_P1;HPM_P2
2022/12/29 00:00:11;;;;;;;2.05;1.45;;;10.10;99.90;;;-144.05;81.16;125687.94;5037916;28;20029;-86
2022/12/29 00:02:37;;;;;;;1.20;1.00;;;10.10;99.90;;;-144.05;81.30;125687.94;5038191;28;20025;-85
2022/12/29 00:05:04;;;;;;;2.10;1.27;;;10.10;99.90;;;-144.05;81.17;125687.94;5020962;28;20064;-84
2022/12/29 00:07:29;;;;;;;2.13;1.23;;;10.20;99.90;;;-144.05;81.32;125687.94;5038628;28;20037;-83
2022/12/29 00:09:55;;;;;;;1.20;1.00;;;10.20;99.90;;;-144.05;80.32;125687.94;5020109;28;20033;-83
2022/12/29 00:12:21;;;;;;;2.55;1.35;;;10.30;99.90;;;-144.05;80.07;125687.94;5037024;28;20033;-85
2022/12/29 00:17:32;;;;;;;2.67;1.10;;;10.40;99.90;;;-144.05;79.70;125687.94;5039002;28;20036;-84
2022/12/29 00:36:43;;;;;;;2.65;1.17;;;10.40;99.90;;;-144.05;79.43;125687.94;5039275;28;20049;-85
2022/12/29 00:44:53;;;;;;;2.25;0.93;;;10.40;99.90;;;-144.05;82.54;125687.94;5041364;28;20391;-85
2022/12/29 00:47:19;;;;;;;1.27;0.93;;;10.30;99.90;;;-144.05;82.30;125687.94;5023767;28;20025;-86
2022/12/29 00:49:45;;;;;;;1.95;0.63;;;10.30;99.90;;;-144.05;82.60;125687.94;5024339;28;20036;-86
2022/12/29 00:52:13;;;;;;;1.58;0.60;;;10.40;99.90;;;-144.05;82.91;125687.94;5042392;28;20119;-84
2022/12/29 00:54:41;;;;;;;1.20;0.70;;;10.40;99.90;;;-144.05;83.04;125687.94;5024104;28;20022;-84
2022/12/29 00:57:09;;;;;;;0.60;0.50;;;10.30;99.90;;;-144.05;83.34;125687.94;5021648;28;20418;-84
2022/12/29 00:59:41;;;;;;;1.55;0.63;;;10.30;99.90;;;-144.05;83.04;125687.94;5039030;28;20051;-86
2022/12/29 01:02:09;;;;;;;1.80;0.88;;;10.30;99.90;;;-144.05;83.04;125687.94;5039130;28;20021;-86
2022/12/29 01:04:36;;;;;;;1.02;0.82;;;10.40;99.90;;;-144.05;82.83;125687.94;5020554;28;20502;-85
2022/12/29 01:07:02;;;;;;;0.73;0.45;;;10.40;99.90;;;-144.05;83.07;125687.94;5020767;28;20037;-85
2022/12/29 01:12:13;;;;;;;1.85;0.80;;;10.30;99.90;;;-144.05;83.90;125687.94;5038501;28;20075;-85
2022/12/29 01:14:39;;;;;;;0.80;0.50;;;10.40;99.90;;;-144.05;84.18;125687.94;5037417;28;20029;-84
2022/12/29 01:17:06;;;;;;;1.23;0.93;;;10.40;99.90;;;-144.05;84.31;125687.94;5020436;28;20442;-87
2022/12/29 01:19:32;;;;;;;1.08;0.80;;;10.40;99.90;;;-144.05;85.50;125687.94;5020160;28;20029;-84
2022/12/29 01:21:58;;;;;;;1.75;0.60;;;10.30;99.90;;;-144.05;85.70;125687.94;5038118;28;20538;-87
2022/12/29 01:24:25;;;;;;;1.48;0.77;;;10.20;99.90;;;-144.05;85.42;125687.94;5039875;28;20104;-83
2022/12/29 01:26:52;;;;;;;1.58;0.82;;;10.20;99.90;;;-144.05;85.44;125687.94;5021589;28;20093;-87
2022/12/29 01:29:18;;;;;;;1.38;0.63;;;10.30;99.90;;;-144.05;85.12;125687.94;5040569;28;20026;-86
2022/12/29 01:31:43;;;;;;;0.95;0.80;;;10.20;99.90;;;-144.05;84.52;125687.94;5024285;28;20072;-85
2022/12/29 01:34:09;;;;;;;1.23;0.77;;;10.30;99.90;;;-144.05;84.62;125687.94;5040775;28;20021;-85
2022/12/29 01:36:35;;;;;;;1.75;0.90;;;10.30;99.90;;;-144.05;84.11;125687.94;5023271;28;20072;-87
2022/12/29 01:39:01;;;;;;;1.17;0.88;;;10.40;99.90;;;-144.05;83.46;125687.94;5019552;28;20030;-83
2022/12/29 01:41:27;;;;;;;1.05;0.95;;;10.40;99.90;;;-144.05;83.30;125687.94;5019857;28;20021;-85
2022/12/29 01:44:01;;;;;;;1.85;1.00;;;10.40;99.90;;;-144.05;83.06;125687.94;5036654;28;20029;-86
2022/12/29 01:46:45;;;;;;;0.70;0.50;;;10.50;99.90;;;-144.05;82.45;125687.94;5037649;28;20029;-86
2022/12/29 01:49:21;;;;;;;0.55;0.50;;;10.50;99.90;;;-144.05;82.40;125687.94;5033274;28;20030;-84
2022/12/29 01:51:58;;;;;;;;;;;10.60;99.90;;;-144.05;82.62;125687.94;5017689;28;20144;-84
2022/12/29 01:54:33;;;;;;;0.77;0.57;;;10.60;99.90;;;-144.05;82.56;125687.94;5017621;28;20000;-84
2022/12/29 01:57:09;;;;;;;1.45;0.70;;;10.60;99.90;;;-144.05;82.34;125687.94;5033660;28;20080;-85
2022/12/29 01:59:48;;;;;;;0.60;0.60;;;10.60;99.90;;;-144.05;81.99;125687.94;5016694;28;20030;-84
2022/12/29 02:02:14;;;;;;;1.08;0.68;;;10.70;99.90;;;-144.05;82.07;125687.94;5033545;28;20033;-86
2022/12/29 02:04:46;;;;;;;0.63;0.40;;;10.80;99.90;;;-144.05;81.34;125687.94;5033083;28;20021;-85
2022/12/29 02:07:22;;;;;;;1.58;0.80;;;10.70;99.90;;;-144.05;81.31;125687.94;5033262;28;20063;-83
2022/12/29 02:09:51;;;;;;;0.85;0.65;;;10.80;99.90;;;-144.05;81.27;125687.94;5032724;28;20065;-86
2022/12/29 02:12:22;;;;;;;1.25;0.80;;;10.80;99.90;;;-144.05;80.99;125687.94;5016239;28;20232;-85
2022/12/29 02:15:00;;;;;;;0.73;0.50;;;10.80;99.90;;;-144.05;80.55;125687.94;5016507;28;20519;-84
2022/12/29 02:18:01;;;;;;;1.08;0.70;;;10.80;99.90;;;-144.05;79.82;125687.94;5016599;28;20364;-85
2022/12/29 02:20:55;;;;;;;0.98;0.75;;;10.80;99.90;;;-144.05;79.62;125687.94;5034772;28;20386;-84
2022/12/29 02:24:19;;;;;;;0.77;0.40;;;10.80;99.90;;;-144.05;78.98;125687.94;5016603;28;20033;-85
2022/12/29 02:27:14;;;;;;;1.58;0.60;;;10.80;99.90;;;-144.05;78.56;125687.94;5017231;28;20097;-83
2022/12/29 02:30:28;;;;;;;0.93;0.60;;;10.90;99.90;;;-144.05;78.54;125687.94;5032813;28;20030;-83
2022/12/29 02:33:22;;;;;;;1.95;0.80;;;11.00;99.90;;;-144.05;78.73;125687.94;5034768;28;20087;-86
2022/12/29 02:36:14;;;;;;;1.50;0.90;;;10.90;99.90;;;-144.05;78.16;125687.94;5033506;28;20021;-85
2022/12/29 02:39:11;;;;;;;0.70;0.50;;;10.90;99.90;;;-144.05;77.57;125687.94;5016380;28;20091;-83
2022/12/29 02:41:54;;;;;;;1.38;0.40;;;10.90;99.90;;;-144.05;77.48;125687.94;5034287;28;20041;-85
2022/12/29 02:44:55;;;;;;;1.27;0.80;;;11.00;99.90;;;-144.05;77.06;125687.94;5017089;28;20110;-84
2022/12/29 02:47:57;;;;;;;1.48;0.75;;;11.00;99.90;;;-144.05;76.54;125687.94;5033959;28;20025;-84
2022/12/29 02:50:43;;;;;;;0.65;0.60;;;11.00;99.90;;;-144.05;76.14;125687.94;5017394;28;20423;-85
2022/12/29 02:53:17;;;;;;;1.33;0.70;;;11.10;99.90;;;-144.05;75.80;125687.94;5036241;23;20034;-76
2022/12/29 02:55:51;;;;;;;2.28;0.88;;;11.10;99.90;;;-144.05;75.60;125687.94;5015645;28;20070;-78
2022/12/29 02:58:23;;;;;;;1.35;0.43;;;11.10;99.90;;;-144.05;75.31;125687.94;5015621;28;20030;-77
2022/12/29 03:02:16;;;;;;;2.15;0.75;;;11.20;99.90;;;-144.05;74.90;125687.94;4995876;28;20026;-78
2022/12/29 03:05:41;;;;;;;2.22;0.70;;;11.10;99.90;;;-144.05;73.41;125687.94;5007674;28;20390;-78
2022/12/29 03:08:22;;;;;;;0.80;0.65;;;11.20;99.90;;;-144.05;73.21;125687.94;5057960;23;20053;-78
2022/12/29 03:17:48;;;;;;;1.08;0.40;;;11.30;99.90;;;-144.05;71.57;125687.94;5037152;28;20556;-78
2022/12/29 03:20:26;;;;;;;1.60;0.70;;;11.40;99.90;;;-144.05;71.43;125687.94;5037778;28;20048;-78
2022/12/29 03:23:01;;;;;;;1.02;0.60;;;11.40;99.90;;;-144.05;70.97;125687.94;5037743;28;20468;-78
2022/12/29 03:25:39;;;;;;;2.47;0.95;;;11.40;99.90;;;-144.05;71.52;125687.94;5034723;28;20444;-78
2022/12/29 03:28:23;;;;;;;1.48;0.80;;;11.40;99.90;;;-144.05;71.18;125687.94;5023445;28;20041;-79
2022/12/29 03:30:49;;;;;;;3.42;0.52;;;11.40;99.90;;;-144.05;71.47;125687.94;5042272;28;20034;-78
2022/12/29 03:33:25;;;;;;;1.40;0.80;;;11.40;99.90;;;-144.05;71.49;125687.94;5042331;28;20104;-78
2022/12/29 03:36:00;;;;;;;;;;;11.40;99.90;;;-144.05;71.39;125687.94;5024303;28;20025;-78
2022/12/29 03:38:40;;;;;;;1.67;0.90;;;11.30;99.90;;;-144.05;72.36;125687.94;5042170;28;19970;-77
2022/12/29 03:41:16;;;;;;;2.63;0.90;;;11.30;99.90;;;-144.05;72.71;125687.94;5040700;28;20029;-77
2022/12/29 03:43:42;;;;;;;0.80;0.60;;;11.20;99.90;;;-144.05;73.33;125687.94;5039603;28;20029;-77
2022/12/29 03:46:08;;;;;;;1.38;0.93;;;11.20;99.90;;;-144.05;73.00;125687.94;5020392;28;20026;-76
2022/12/29 03:48:34;;;;;;;4.18;0.90;;;11.10;99.90;;;-144.05;72.75;125687.94;5038877;28;20040;-78
2022/12/29 03:51:00;;;;;;;1.92;0.85;;;11.10;99.90;;;-144.05;73.01;125687.94;5023837;28;20048;-77
2022/12/29 03:53:26;;;;;;;0.70;0.40;;;11.10;99.90;;;-144.05;72.55;125687.94;5023341;28;20497;-77
2022/12/29 03:55:51;;;;;;;1.90;0.60;;;11.20;99.90;;;-144.05;73.94;125687.94;5041794;28;20053;-78
2022/12/29 03:58:17;;;;;;;1.45;0.60;;;11.10;99.90;;;-144.05;74.85;125687.94;5042021;28;20017;-78
2022/12/29 04:00:43;;;;;;;3.85;0.85;;;10.90;99.90;;;-144.05;76.15;125687.94;5038103;28;20044;-78
2022/12/29 04:03:09;;;;;;;1.80;0.85;;;10.80;99.90;;;-144.05;78.10;125687.94;5038923;28;20521;-78
2022/12/29 04:05:35;;;;;;;2.92;0.50;;;10.60;99.90;;;-144.05;78.96;125687.94;5041132;28;20037;-77
2022/12/29 04:08:00;;;;;;;1.73;0.93;;;10.50;99.90;;;-144.05;79.07;125687.94;5022920;28;20048;-77
2022/12/29 04:10:26;;;;;;;1.02;0.60;;;10.50;99.90;;;-144.05;79.37;125687.94;5041614;28;20068;-78
2022/12/29 04:12:52;;;;;;;0.82;0.47;;;10.50;99.90;;;-144.05;79.61;125687.94;5043147;28;20091;-78
2022/12/29 04:15:18;;;;;;;1.40;0.70;;;10.40;99.90;;;-144.05;80.10;125687.94;5042865;28;20049;-78
2022/12/29 04:17:44;;;;;;;1.63;0.65;;;10.40;99.90;;;-144.05;80.79;125687.94;5041831;28;20029;-79
2022/12/29 04:23:06;;;;;;;1.80;0.60;;;10.40;99.90;;;-144.05;80.51;125687.94;5043896;28;20060;-79
2022/12/29 04:25:33;;;;;;;1.20;0.50;;;10.30;99.90;;;-144.05;80.87;125687.94;5025664;28;20029;-79
2022/12/29 04:28:00;;;;;;;0.98;0.80;;;10.30;99.90;;;-144.05;80.30;125687.94;5043762;28;20029;-79
2022/12/29 04:30:26;;;;;;;0.85;0.43;;;10.40;99.90;;;-144.05;79.78;125687.94;5043757;28;20093;-80
2022/12/29 04:32:51;;;;;;;1.10;0.55;;;10.40;99.90;;;-144.05;78.92;125687.94;5043962;28;20052;-77
2022/12/29 04:35:17;;;;;;;1.65;0.70;;;10.50;99.90;;;-144.05;78.40;125687.94;5024636;28;20038;-78
2022/12/29 04:37:43;;;;;;;2.67;0.57;;;10.50;99.90;;;-144.05;77.74;125687.94;5042581;28;20021;-78
2022/12/29 04:40:10;;;;;;;1.63;0.60;;;10.60;99.90;;;-144.05;77.54;125687.94;5041657;28;20507;-78
2022/12/29 04:42:36;;;;;;;2.05;0.63;;;10.70;99.90;;;-144.05;77.80;125687.94;5023614;28;20029;-79
2022/12/29 04:45:02;;;;;;;1.00;0.77;;;10.80;99.90;;;-144.05;76.70;125687.94;5039574;28;20044;-77
2022/12/29 04:47:28;;;;;;;3.63;0.82;;;10.80;99.90;;;-144.05;76.24;125687.94;5021991;28;20064;-78
2022/12/29 04:49:54;;;;;;;0.88;0.70;;;10.90;99.90;;;-144.05;75.77;125687.94;5041349;28;20029;-78
2022/12/29 04:52:20;;;;;;;2.67;0.40;;;10.90;99.90;;;-144.05;74.93;125687.94;5041755;28;20025;-77
2022/12/29 04:54:45;;;;;;;1.40;0.60;;;11.00;99.90;;;-144.05;74.96;125687.94;5041854;28;20037;-78
2022/12/29 04:57:11;;;;;;;0.63;0.60;;;11.10;99.90;;;-144.05;74.53;125687.94;5042205;28;20025;-78
2022/12/29 04:59:37;;;;;;;1.23;0.52;;;11.10;99.90;;;-144.05;73.92;125687.94;5041916;28;20036;-77
2022/12/29 05:02:03;;;;;;;1.80;0.50;;;11.20;99.90;;;-144.05;73.53;125687.94;5036531;28;20033;-78
2022/12/29 05:04:29;;;;;;;0.47;0.40;;;11.30;99.90;;;-144.05;73.05;125687.94;5020856;28;20036;-78
2022/12/29 05:06:54;;;;;;;0.82;0.52;;;11.30;99.90;;;-144.05;72.39;125687.94;5040064;28;20073;-78
2022/12/29 05:09:20;;;;;;;7.80;0.75;;;11.40;99.90;;;-144.05;72.17;125687.94;5040614;28;20056;-78
2022/12/29 05:11:46;;;;;;;3.10;0.57;;;11.40;99.90;;;-144.05;71.70;125687.94;5041446;28;20060;-79
2022/12/29 05:14:12;;;;;;;1.48;0.65;;;11.40;99.90;;;-144.05;71.10;125687.94;5042081;28;20057;-78
2022/12/29 05:16:38;;;;;;;1.08;0.40;;;11.40;99.90;;;-144.05;70.46;125687.94;5042364;28;20072;-79
2022/12/29 05:19:03;;;;;;;0.57;0.45;;;11.60;99.90;;;-144.05;70.08;125687.94;5040917;28;20029;-78
2022/12/29 05:21:29;;;;;;;0.85;0.40;;;11.60;99.90;;;-144.05;70.21;125687.94;5041922;28;20048;-78
2022/12/29 05:23:55;;;;;;;0.30;0.10;;;11.60;99.90;;;-144.05;69.31;125687.94;5041014;28;20053;-78
2022/12/29 05:26:21;;;;;;;1.42;0.60;;;11.70;99.90;;;-144.05;69.13;125687.94;5022833;28;20069;-78
2022/12/29 05:28:47;;;;;;;0.40;0.40;;;11.70;99.90;;;-144.05;68.68;125687.94;5040407;28;20089;-78
2022/12/29 05:31:13;;;;;;;0.57;0.40;;;11.70;99.90;;;-144.05;68.02;125687.94;5021113;28;20041;-75
2022/12/29 05:33:39;;;;;;;2.40;0.73;;;11.80;99.90;;;-144.05;67.38;125687.94;5042216;28;20025;-79
2022/12/29 05:36:08;;;;;;;0.70;0.32;;;11.80;99.90;;;-144.05;67.06;125687.94;5040884;28;20045;-78
2022/12/29 05:38:34;;;;;;;1.45;0.40;;;11.80;99.90;;;-144.05;66.79;125687.94;5039571;28;20092;-79
2022/12/29 05:41:01;;;;;;;1.88;0.85;;;11.80;99.90;;;-144.05;67.69;125687.94;5022616;28;20099;-78
2022/12/29 05:43:26;;;;;;;2.13;0.50;;;11.80;99.90;;;-144.05;67.54;125687.94;5041891;28;20028;-77
2022/12/29 05:45:54;;;;;;;1.92;0.45;;;11.80;99.90;;;-144.05;66.61;125687.94;5040445;28;20030;-78
2022/12/29 05:48:20;;;;;;;1.73;0.63;;;11.90;99.90;;;-144.05;66.12;125687.94;5037988;28;20029;-78
2022/12/29 05:50:51;;;;;;;2.83;0.50;;;12.00;99.90;;;-144.05;65.91;125687.94;5039099;28;20049;-78
2022/12/29 05:53:18;;;;;;;1.00;0.52;;;12.00;99.90;;;-144.05;65.31;125687.94;5020410;28;20048;-77
2022/12/29 05:55:47;;;;;;;2.67;0.40;;;12.10;99.90;;;-144.05;65.51;125687.94;5037617;28;20443;-78
2022/12/29 05:58:15;;;;;;;0.82;0.55;;;12.10;99.90;;;-144.05;65.45;125687.94;5038058;28;20021;-79
2022/12/29 06:00:41;;;;;;;1.05;0.52;;;12.00;99.90;;;-144.05;65.13;125687.94;5039025;28;20040;-77
2022/12/29 06:03:07;;;;;;;0.40;0.30;;;12.00;99.90;;;-144.05;65.39;125687.94;5036933;28;20037;-77
2022/12/29 06:05:33;;;;;;;1.10;0.60;;;12.00;99.90;;;-144.05;65.31;125687.94;5020675;28;20033;-77
2022/12/29 06:07:59;;;;;;;4.15;0.80;;;11.90;99.90;;;-144.05;65.02;125687.94;5037486;28;20075;-75
2022/12/29 06:10:25;;;;;;;1.95;0.40;;;11.90;99.90;;;-144.05;64.84;125687.94;5037744;28;20021;-78
2022/12/29 06:12:51;;;;;;;0.70;0.40;;;11.90;99.90;;;-144.05;64.63;125687.94;5036381;28;20079;-78
2022/12/29 06:15:17;;;;;;;1.65;0.60;;;11.90;99.90;;;-144.05;64.47;125687.94;5035954;28;20342;-77
2022/12/29 06:17:43;;;;;;;3.38;0.63;;;11.90;99.90;;;-144.05;63.96;125687.94;5016500;28;20030;-77
2022/12/29 06:20:10;;;;;;;3.40;0.52;;;12.00;99.90;;;-144.05;64.20;125687.94;5033882;28;20033;-77
2022/12/29 06:22:37;;;;;;;2.45;0.50;;;12.00;99.90;;;-144.05;64.16;125687.94;5018233;28;20489;-78
2022/12/29 06:25:05;;;;;;;1.10;0.60;;;12.00;99.90;;;-144.05;64.33;125687.94;5036120;28;20393;-78
2022/12/29 06:27:31;;;;;;;3.58;0.60;;;12.00;99.90;;;-144.05;64.65;125687.94;5036166;28;20033;-78
2022/12/29 06:29:57;;;;;;;0.77;0.32;;;12.00;99.90;;;-144.05;64.33;125687.94;5017197;28;20032;-77
2022/12/29 06:32:23;;;;;;;2.00;0.73;;;12.00;99.90;;;-144.05;64.09;125687.94;5035412;28;20021;-77
2022/12/29 06:34:49;;;;;;;2.83;0.50;;;11.90;99.90;;;-144.05;63.96;125687.94;5035964;28;20406;-77
2022/12/29 06:37:15;;;;;;;1.10;0.47;;;11.90;99.90;;;-144.05;64.20;125687.94;5017695;28;20026;-77
2022/12/29 06:39:41;;;;;;;0.90;0.30;;;12.00;99.90;;;-144.05;63.90;125687.94;5016769;28;20036;-76
2022/12/29 06:42:08;;;;;;;3.13;0.63;;;12.00;99.90;;;-144.05;63.58;125687.94;5035299;28;20523;-78
2022/12/29 06:44:34;;;;;;;1.20;0.77;;;12.00;99.90;;;-144.05;63.87;125687.94;5036754;28;20068;-78
2022/12/29 06:47:00;;;;;;;2.17;0.60;;;12.00;99.90;;;-144.05;63.44;125687.94;5036342;28;20397;-79
2022/12/29 06:49:26;;;;;;;3.42;0.70;;;12.00;99.90;;;-144.05;63.36;125687.94;5017818;28;20033;-79
2022/12/29 06:51:51;;;;;;;3.45;0.70;;;11.90;99.90;;;-144.05;63.80;125687.94;5017542;28;20036;-77
2022/12/29 06:54:17;;;;;;;1.65;0.50;;;11.80;99.90;;;-144.05;63.78;125687.94;5034966;28;20048;-77
2022/12/29 06:56:44;;;;;;;2.33;0.60;;;11.60;99.90;;;-144.05;64.11;125687.94;5035803;28;20084;-77
2022/12/29 06:59:10;;;;;;;1.30;0.38;;;11.70;99.90;;;-144.05;64.04;125687.94;5018057;28;20059;-78
2022/12/29 07:01:36;;;;;;;1.85;0.47;;;11.70;99.90;;;-144.05;63.50;125687.94;5017084;28;20409;-75
2022/12/29 07:04:03;;;;;;;1.40;0.45;;;11.70;99.90;;;-144.05;63.62;125687.94;5038507;28;20022;-77
2022/12/29 07:06:29;;;;;;;1.45;0.50;;;11.80;99.90;;;-144.05;63.09;125687.94;5038126;28;20052;-77
2022/12/29 07:08:57;;;;;;;1.85;0.65;;;11.80;99.90;;;-144.05;63.22;125687.94;5038801;28;20465;-77
2022/12/29 07:11:23;;;;;;;2.67;0.60;;;11.80;99.90;;;-144.05;63.37;125687.94;5038145;28;20034;-77
2022/12/29 07:13:50;;;;;;;2.00;0.52;;;11.80;99.90;;;-144.05;63.50;125687.94;5036159;28;20036;-77
2022/12/29 07:16:16;;;;;;;3.05;0.70;;;11.80;99.90;;;-144.05;64.03;125687.94;5036642;28;20473;-77
2022/12/29 07:18:42;;;;;;;1.65;0.50;;;11.70;99.90;;;-144.05;63.58;125687.94;5037111;28;20037;-75
2022/12/29 07:21:08;;;;;;;1.23;0.40;;;11.70;99.90;;;-144.05;63.82;125687.94;5036356;28;20029;-76
2022/12/29 07:23:34;;;;;;;2.15;0.50;;;11.60;99.90;;;-144.05;63.75;125687.94;5038695;28;20030;-77
2022/12/29 07:26:08;;;;;;;4.00;0.65;;;11.60;99.90;;;-144.05;64.33;125687.94;5035741;28;20069;-76
2022/12/29 07:28:37;;;;;;;1.33;0.40;;;11.60;99.90;;;-144.05;63.74;125687.94;5036592;28;20029;-75
2022/12/29 07:31:05;;;;;;;1.55;0.70;;;11.70;99.90;;;-144.05;63.73;125687.94;5036879;28;20080;-77
2022/12/29 07:33:32;;;;;;;4.13;0.52;;;11.60;99.90;;;-144.05;63.72;125687.94;5035793;28;20053;-76
2022/12/29 07:35:59;;;;;;;2.33;0.60;;;11.50;99.90;;;-144.05;64.24;125687.94;5034817;28;20483;-76
2022/12/29 07:38:25;;;;;;;2.05;0.43;;;11.50;99.90;;;-144.05;64.48;125687.94;5036004;28;20468;-76
2022/12/29 07:40:55;;;;;;;4.53;0.55;;;11.40;99.90;;;-144.05;63.97;125687.94;5037239;28;20048;-78
2022/12/29 07:43:21;;;;;;;3.10;0.90;;;11.40;99.90;;;-144.05;63.45;125687.94;5038327;28;20037;-78
2022/12/29 07:45:48;;;;;;;1.27;0.52;;;11.50;99.90;;;-144.05;63.64;125687.94;5037560;28;20048;-78
2022/12/29 07:48:14;;;;;;;2.38;0.77;;;11.50;99.90;;;-144.05;63.57;125687.94;5036619;28;20519;-77
2022/12/29 07:50:39;;;;;;;3.00;0.90;;;11.50;99.90;;;-144.05;63.63;125687.94;5038159;28;20152;-77
2022/12/29 07:53:05;;;;;;;1.45;0.50;;;11.40;99.90;;;-144.05;63.08;125687.94;5019888;28;20057;-78
2022/12/29 07:55:31;;;;;;;3.72;0.77;;;11.40;99.90;;;-144.05;62.71;125687.94;5037721;28;20108;-78
2022/12/29 07:57:57;;;;;;;2.95;0.40;;;11.40;99.90;;;-144.05;62.84;125687.94;5020818;28;20472;-78
2022/12/29 08:00:23;;;;;;;4.05;0.95;;;11.30;99.90;;;-144.05;62.14;125687.94;5037500;28;20026;-78
2022/12/29 08:02:49;;;;;;;5.50;1.25;;;11.30;99.90;;;-144.05;61.50;125687.94;5037731;28;20133;-78
2022/12/29 08:05:15;;;;;;;2.42;0.60;;;11.30;99.90;;;-144.05;61.22;125687.94;5039116;28;20499;-77
2022/12/29 08:07:46;;;;;;;1.63;0.40;;;11.40;99.90;;;-144.05;61.05;125687.94;5037598;28;20143;-76
2022/12/29 08:10:14;;;;;;;2.63;0.60;;;11.40;99.90;;;-144.05;60.71;125687.94;5037653;28;20033;-77
2022/12/29 08:12:42;;;;;;;3.30;1.20;;;11.40;99.90;;;-144.05;60.95;125687.94;5036325;28;20029;-77
2022/12/29 08:15:11;;;;;;;5.78;0.90;;;11.40;99.90;;;-144.05;60.82;125687.94;5020049;28;20029;-77
2022/12/29 08:17:38;;;;;;;4.28;1.00;;;11.40;99.90;;;-144.05;60.87;125687.94;5035964;28;20018;-77
2022/12/29 08:20:05;;;;;;;4.45;0.95;;;11.40;99.90;;;-144.05;60.82;125687.94;5035938;28;20044;-76
2022/12/29 08:22:31;;;;;;;3.78;0.82;;;11.40;99.90;;;-144.05;60.53;125687.94;5017619;28;20056;-77
2022/12/29 08:24:57;;;;;;;6.20;0.90;;;11.40;99.90;;;-144.05;59.89;125687.94;5020398;28;20480;-78
2022/12/29 08:27:23;;;;;;;5.50;1.42;;;11.40;99.90;;;-144.05;60.14;125687.94;5017190;28;20497;-77
2022/12/29 08:29:49;;;;;;;4.50;1.17;;;11.40;99.90;;;-144.05;60.28;125687.94;5034309;28;20029;-77
2022/12/29 08:32:15;;;;;;;4.13;0.98;;;11.40;99.90;;;-144.05;59.84;125687.94;5036220;28;20435;-78
2022/12/29 08:34:41;;;;;;;4.18;0.80;;;11.30;99.90;;;-144.05;60.17;125687.94;5035038;28;20100;-77
2022/12/29 08:37:07;;;;;;;3.75;1.10;;;11.40;99.90;;;-144.05;60.02;125687.94;5015744;28;20030;-77
2022/12/29 08:39:34;;;;;;;4.22;0.65;;;11.40;99.90;;;-144.05;59.87;125687.94;5033751;28;20510;-78
2022/12/29 08:41:59;;;;;;;5.95;1.10;;;11.30;99.90;;;-144.05;59.77;125687.94;5017583;28;20029;-78
2022/12/29 08:44:25;;;;;;;3.85;1.25;;;11.30;99.90;;;-144.05;59.32;125687.94;5037358;28;20037;-78
2022/12/29 08:46:51;;;;;;;5.28;1.40;;;11.30;99.90;;;-144.05;59.76;125687.94;5037268;28;20041;-78
2022/12/29 08:49:17;;;;;;;2.95;0.80;;;11.40;99.90;;;-144.05;59.15;125687.94;5036221;28;20033;-76
2022/12/29 08:51:43;;;;;;;6.30;0.85;;;11.40;99.90;;;-144.05;59.35;125687.94;5034815;28;20033;-77
2022/12/29 08:54:09;;;;;;;5.20;0.80;;;11.40;99.90;;;-144.05;59.72;125687.94;5034664;28;20026;-77
2022/12/29 08:56:34;;;;;;;5.20;1.08;;;11.40;99.90;;;-144.05;59.51;125687.94;5017187;28;20436;-77
2022/12/29 08:59:00;;;;;;;5.90;0.90;;;11.50;99.90;;;-144.05;59.32;125687.94;5016427;28;20029;-76
2022/12/29 09:01:26;;;;;;;2.15;0.88;;;11.50;99.90;;;-144.05;59.89;125687.94;5036918;28;20087;-77
2022/12/29 09:03:54;;;;;;;2.95;0.90;;;11.50;99.90;;;-144.05;59.60;125687.94;5018485;28;20037;-78
2022/12/29 09:06:21;;;;;;;4.03;1.00;;;11.50;99.90;;;-144.05;59.88;125687.94;5038116;28;20056;-76
2022/12/29 09:11:21;;;;;;;7.00;1.17;;;11.50;99.90;;;-144.05;62.83;125687.94;5031219;28;20103;-77
2022/12/29 09:13:48;;;;;;;4.72;0.90;;;11.20;99.90;;;-144.05;64.97;125687.94;5033039;28;20037;-78
2022/12/29 09:16:15;;;;;;;4.60;0.90;;;11.00;99.90;;;-144.05;66.04;125687.94;5032813;28;20025;-78
2022/12/29 09:18:42;;;;;;;3.78;0.93;;;10.80;99.90;;;-144.05;65.92;125687.94;5032477;28;20076;-76
2022/12/29 09:21:11;;;;;;;3.22;1.00;;;10.80;99.90;;;-144.05;65.94;125687.94;5034387;28;20059;-77
2022/12/29 09:23:37;;;;;;;5.40;0.93;;;10.70;99.90;;;-144.05;65.66;125687.94;5015801;28;20393;-77
2022/12/29 09:26:04;;;;;;;5.55;0.95;;;10.60;99.90;;;-144.05;65.84;125687.94;5014891;28;20025;-78
2022/12/29 09:28:31;;;;;;;3.30;1.00;;;10.50;99.90;;;-144.05;65.97;125687.94;5032175;28;20041;-77
2022/12/29 09:30:58;;;;;;;5.60;0.95;;;10.40;99.90;;;-144.05;65.82;125687.94;5031937;28;20021;-75
2022/12/29 09:33:24;;;;;;;5.25;1.23;;;10.50;99.90;;;-144.05;64.94;125687.94;5032239;28;20053;-76
2022/12/29 09:35:58;;;;;;;4.10;0.88;;;10.60;99.90;;;-144.05;63.67;125687.94;5032662;28;20029;-78
2022/12/29 09:38:26;;;;;;;8.25;1.27;;;10.80;99.90;;;-144.05;63.14;125687.94;5031945;28;20061;-75
2022/12/29 09:41:01;;;;;;;5.72;0.80;;;11.10;99.90;;;-144.05;62.07;125687.94;5031982;28;20034;-76
2022/12/29 09:43:51;;;;;;;5.57;0.80;;;11.30;99.90;;;-144.05;61.67;125687.94;5032398;28;20029;-75
2022/12/29 09:46:40;;;;;;;4.43;0.95;;;11.40;99.90;;;-144.05;61.43;125687.94;5014794;28;20041;-74
2022/12/29 09:49:39;;;;;;;5.22;1.10;;;11.50;99.90;;;-144.05;61.37;125687.94;5032078;28;20102;-77
2022/12/29 09:52:18;;;;;;;3.72;1.15;;;11.40;99.90;;;-144.05;60.94;125687.94;5014279;28;20413;-76
2022/12/29 09:55:13;;;;;;;7.93;2.08;;;11.40;99.90;;;-144.05;61.04;125687.94;5032253;28;20108;-76
2022/12/29 09:58:02;;;;;;;5.28;1.27;;;11.40;99.90;;;-144.05;60.87;125687.94;5033225;28;20022;-78
2022/12/29 10:00:53;;;;;;;8.35;1.02;;;11.40;99.90;;;-144.05;60.54;125687.94;5032524;28;20037;-78
2022/12/29 10:03:27;;;;;;;6.18;1.10;;;11.50;99.90;;;-144.05;60.43;125687.94;5032612;28;20047;-78
2022/12/29 10:06:12;;;;;;;6.13;0.77;;;11.50;99.90;;;-144.05;60.65;125687.94;5033400;28;20038;-77
2022/12/29 10:09:06;;;;;;;3.00;0.88;;;11.40;99.90;;;-144.05;61.43;125687.94;5015046;28;20124;-78
2022/12/29 10:12:08;;;;;;;3.17;0.85;;;11.30;99.90;;;-144.05;62.25;125687.94;5032264;28;20103;-78
2022/12/29 10:15:29;;;;;;;6.72;1.20;;;11.30;99.90;;;-144.05;61.66;125687.94;5015292;28;20034;-78
2022/12/29 10:18:37;;;;;;;5.10;1.00;;;11.40;99.90;;;-144.05;61.61;125687.94;5015037;28;20389;-78
2022/12/29 10:21:46;;;;;;;4.82;0.82;;;11.40;99.90;;;-144.05;61.31;125687.94;5015267;28;20029;-78
2022/12/29 10:24:13;;;;;;;3.28;0.80;;;11.30;99.90;;;-144.05;60.14;125687.94;5016268;28;20129;-78
2022/12/29 10:26:47;;;;;;;7.47;1.50;;;11.50;99.90;;;-144.05;58.50;125687.94;5033062;28;20056;-76
2022/12/29 10:29:45;;;;;;;8.05;1.20;;;11.70;99.90;;;-144.05;58.54;125687.94;5013935;28;20033;-76
2022/12/29 10:32:48;;;;;;;5.53;0.93;;;11.80;99.90;;;-144.05;57.44;125687.94;5014023;28;20382;-76
2022/12/29 10:35:35;;;;;;;6.50;1.13;;;11.90;99.90;;;-144.05;56.60;125687.94;5031997;28;20362;-76
2022/12/29 10:38:44;;;;;;;6.93;0.80;;;11.90;99.90;;;-144.05;57.19;125687.94;5014306;28;20397;-76
2022/12/29 10:41:38;;;;;;;6.40;0.80;;;11.70;99.90;;;-144.05;56.88;125687.94;5032274;28;20068;-75
2022/12/29 10:44:04;;;;;;;5.05;0.80;;;11.60;99.90;;;-144.05;57.19;125687.94;5014311;28;20424;-77
2022/12/29 10:46:37;;;;;;;5.88;1.48;;;11.70;99.90;;;-144.05;57.04;125687.94;5032075;28;20063;-75
2022/12/29 10:49:06;;;;;;;4.20;0.93;;;11.70;99.90;;;-144.05;56.52;125687.94;5030769;28;20112;-76
2022/12/29 10:51:45;;;;;;;7.07;1.40;;;11.70;99.90;;;-144.05;56.03;125687.94;5014541;28;20033;-76
2022/12/29 10:54:23;;;;;;;4.57;1.05;;;11.70;99.90;;;-144.05;55.92;125687.94;5031985;28;20349;-77
2022/12/29 10:57:09;;;;;;;9.77;1.67;;;11.90;99.90;;;-144.05;55.31;125687.94;5032783;28;20175;-78
2022/12/29 10:59:37;;;;;;;5.57;0.90;;;11.90;99.90;;;-144.05;55.33;125687.94;5031550;28;20059;-76